Terminal Aerodrome Forecast
Issued by NWS Duluth, MN

Home | Current Version | Previous Version | Text Only | Print | Product List | Glossary On
Versions: 1 2 3 4 5 6 7 8 9 10 11 12 13 14 15 16 17 18 19 20 21 22 23 24 25 26
098
FTUS43 KDLH 050146 AAB
TAFDLH
TAF AMD
KDLH 050146Z 0502/0524 17006KT 3SM -FZDZ BR OVC003
      TEMPO 0502/0505 1SM -FZDZSN BR OVC002
     FM050500 26008KT 5SM BR BKN006
     FM051200 21006KT P6SM BKN012
     FM052100 19005KT P6SM VCSH BKN008=

USA.gov is the U.S. government's official web portal to all federal, state and local government web resources and services.